createdAt,value
2019-02-12T00:00:20.796Z,1012
2019-02-12T00:01:22.906Z,1012
2019-02-12T00:02:25.022Z,1012.1
2019-02-12T00:03:27.155Z,1012.1
2019-02-12T00:04:29.282Z,1012.1
2019-02-12T00:05:31.778Z,1012.2
2019-02-12T00:06:33.903Z,1012.2
2019-02-12T00:07:36.015Z,1012.2
2019-02-12T00:08:38.409Z,1012.2
2019-02-12T00:09:41.145Z,1012.2
2019-02-12T00:10:43.277Z,1012.1
2019-02-12T00:11:45.976Z,1012.1
2019-02-12T00:12:48.804Z,1012.2
2019-02-12T00:13:51.261Z,1012.2
2019-02-12T00:14:53.686Z,1012.2
2019-02-12T00:15:56.248Z,1012.2
2019-02-12T00:16:59.032Z,1012.2
2019-02-12T00:18:01.148Z,1012.1
2019-02-12T00:19:03.650Z,1012.2
2019-02-12T00:20:06.072Z,1012.2
2019-02-12T00:21:09.692Z,1012.2
2019-02-12T00:22:11.838Z,1012.1
2019-02-12T00:23:14.844Z,1012.2
2019-02-12T00:24:16.943Z,1012.2
2019-02-12T00:25:19.461Z,1012.1
2019-02-12T00:26:21.854Z,1012.1
2019-02-12T00:27:23.970Z,1012.2
2019-02-12T00:28:26.075Z,1012.1
2019-02-12T00:29:28.894Z,1012.2
2019-02-12T00:30:31.014Z,1012.1
2019-02-12T00:31:33.119Z,1012.2
2019-02-12T00:32:35.221Z,1012.2
2019-02-12T00:33:37.403Z,1012.2
2019-02-12T00:34:39.797Z,1012.2
2019-02-12T00:35:41.907Z,1012.2
2019-02-12T00:36:44.021Z,1012.2
2019-02-12T00:37:46.139Z,1012.2
2019-02-12T00:38:49.169Z,1011.9
2019-02-12T00:39:51.856Z,1012.2
2019-02-12T00:40:53.968Z,1012.3
2019-02-12T00:41:56.414Z,1012.2
2019-02-12T00:42:58.540Z,1012.2
2019-02-12T00:44:00.933Z,1012.3
2019-02-12T00:45:03.346Z,1012.3
2019-02-12T00:46:06.065Z,1012.3
2019-02-12T00:47:08.173Z,1012.4
2019-02-12T00:48:10.279Z,1012.5
2019-02-12T00:49:12.421Z,1012.4
2019-02-12T00:50:14.520Z,1012.4
2019-02-12T00:51:18.234Z,1012.4
2019-02-12T00:52:20.362Z,1012.5
2019-02-12T00:53:22.565Z,1012.5
2019-02-12T00:54:24.954Z,1012.5
2019-02-12T00:55:27.573Z,1012.4
2019-02-12T00:56:29.707Z,1012.4
2019-02-12T00:57:32.203Z,1012.4
2019-02-12T00:58:34.608Z,1012.4
2019-02-12T00:59:37.004Z,1012.4
2019-02-12T01:00:39.133Z,1012.4
2019-02-12T01:01:41.561Z,1012.5
2019-02-12T01:02:44.334Z,1012.4
2019-02-12T01:03:46.487Z,1012.4
2019-02-12T01:04:48.916Z,1012.4
2019-02-12T01:05:51.435Z,1012.5
2019-02-12T01:06:53.563Z,1012.4
2019-02-12T01:07:55.720Z,1012.5
2019-02-12T01:08:57.846Z,1012.4
2019-02-12T01:09:59.968Z,1012.4
2019-02-12T01:11:02.128Z,1012.5
2019-02-12T01:12:04.244Z,1012.5
2019-02-12T01:13:06.363Z,1012.5
2019-02-12T01:14:08.468Z,1012.5
2019-02-12T01:15:10.863Z,1012.6
2019-02-12T01:16:13.267Z,1012.6
2019-02-12T01:17:15.379Z,1012.6
2019-02-12T01:18:17.761Z,1012.6
2019-02-12T01:19:19.890Z,1012.6
2019-02-12T01:20:22.004Z,1012.7
2019-02-12T01:21:26.543Z,1012.5
2019-02-12T01:22:28.964Z,1012.7
2019-02-12T01:23:31.068Z,1012.7
2019-02-12T01:24:33.474Z,1012.7
2019-02-12T01:25:35.872Z,1012.7
2019-02-12T01:26:38.001Z,1012.8
2019-02-12T01:27:40.098Z,1012.8
2019-02-12T01:28:42.225Z,1012.9
2019-02-12T01:29:44.334Z,1012.8
2019-02-12T01:30:46.727Z,1012.8
2019-02-12T01:31:48.875Z,1012.9
2019-02-12T01:32:51.663Z,1012.9
2019-02-12T01:33:53.783Z,1012.8
2019-02-12T01:34:56.250Z,1013
2019-02-12T01:35:59.086Z,1013
2019-02-12T01:37:01.194Z,1013
2019-02-12T01:38:03.634Z,1012.9
2019-02-12T01:39:06.033Z,1013
2019-02-12T01:40:08.538Z,1013
2019-02-12T01:41:10.659Z,1012.9
2019-02-12T01:42:13.067Z,1013
2019-02-12T01:43:15.164Z,1013
2019-02-12T01:44:17.284Z,1013
2019-02-12T01:45:19.430Z,1013
2019-02-12T01:46:21.550Z,1012.9
2019-02-12T01:47:23.653Z,1013
2019-02-12T01:48:25.771Z,1013
2019-02-12T01:49:28.290Z,1013.1
2019-02-12T01:50:30.399Z,1013
2019-02-12T01:51:35.480Z,1013.1
2019-02-12T01:52:38.287Z,1013.1
2019-02-12T01:53:40.690Z,1013.1
2019-02-12T01:54:43.760Z,1013.1
2019-02-12T01:55:45.883Z,1013.1
2019-02-12T01:56:47.978Z,1013.2
2019-02-12T01:57:50.405Z,1013.1
2019-02-12T01:58:52.520Z,1013
2019-02-12T01:59:54.642Z,1013
2019-02-12T02:00:57.022Z,1013.1
2019-02-12T02:01:59.156Z,1013
2019-02-12T02:03:01.548Z,1013
2019-02-12T02:04:04.052Z,1013
2019-02-12T02:05:06.491Z,1012.9
2019-02-12T02:06:08.592Z,1013
2019-02-12T02:07:10.990Z,1013
2019-02-12T02:08:13.101Z,1013
2019-02-12T02:09:15.528Z,1013
2019-02-12T02:10:17.633Z,1013.1
2019-02-12T02:11:20.042Z,1013.1
2019-02-12T02:12:22.162Z,1013.1
2019-02-12T02:13:24.261Z,1013
2019-02-12T02:14:26.374Z,1013.1
2019-02-12T02:15:28.782Z,1013.1
2019-02-12T02:16:30.891Z,1013.1
2019-02-12T02:17:33.000Z,1013
2019-02-12T02:18:35.519Z,1013
2019-02-12T02:19:37.630Z,1013
2019-02-12T02:20:39.760Z,1013
2019-02-12T02:21:44.811Z,1013
2019-02-12T02:22:47.292Z,1013
2019-02-12T02:23:49.704Z,1013
2019-02-12T02:24:52.106Z,1013
2019-02-12T02:25:54.591Z,1013
2019-02-12T02:26:56.714Z,1013.1
2019-02-12T02:27:58.831Z,1013.1
2019-02-12T02:29:00.944Z,1013
2019-02-12T02:30:03.385Z,1013.1
2019-02-12T02:31:05.530Z,1013
2019-02-12T02:32:08.256Z,1013
2019-02-12T02:33:10.454Z,1013
2019-02-12T02:34:12.869Z,1013
2019-02-12T02:35:15.343Z,1013.1
2019-02-12T02:36:18.437Z,1013.1
2019-02-12T02:37:20.558Z,1013.1
2019-02-12T02:38:23.239Z,1013.1
2019-02-12T02:39:25.388Z,1013.1
2019-02-12T02:40:27.519Z,1013.1
2019-02-12T02:41:30.412Z,1013.1
2019-02-12T02:42:33.218Z,1013.1
2019-02-12T02:43:35.347Z,1013.2
2019-02-12T02:44:37.537Z,1013.1
2019-02-12T02:45:39.646Z,1013
2019-02-12T02:46:42.101Z,1013.1
2019-02-12T02:47:44.221Z,1013
2019-02-12T02:48:46.662Z,1013.1
2019-02-12T02:49:49.212Z,1013.1
2019-02-12T02:50:51.339Z,1013.1
2019-02-12T02:51:54.464Z,1013.2
2019-02-12T02:52:56.587Z,1013.2
2019-02-12T02:53:58.995Z,1013.2
2019-02-12T02:55:01.117Z,1013.2
2019-02-12T02:56:03.690Z,1013.2
2019-02-12T02:57:05.814Z,1013.2
2019-02-12T02:58:08.239Z,1013.1
2019-02-12T02:59:11.122Z,1013.1
2019-02-12T03:00:13.232Z,1013.1
2019-02-12T03:01:15.663Z,1013.2
2019-02-12T03:02:18.159Z,1013.2
2019-02-12T03:03:20.342Z,1013.2
2019-02-12T03:04:22.764Z,1013.3
2019-02-12T03:05:24.881Z,1013.2
2019-02-12T03:06:26.998Z,1013.3
2019-02-12T03:07:29.147Z,1013.4
2019-02-12T03:08:31.662Z,1013.5
2019-02-12T03:09:34.158Z,1013.4
2019-02-12T03:10:36.313Z,1013.4
2019-02-12T03:11:38.715Z,1013.4
2019-02-12T03:12:41.245Z,1013.3
2019-02-12T03:13:44.027Z,1013.4
2019-02-12T03:14:46.215Z,1013.4
2019-02-12T03:15:48.910Z,1013.4
2019-02-12T03:16:51.041Z,1013.4
2019-02-12T03:17:53.150Z,1013.5
2019-02-12T03:18:55.658Z,1013.5
2019-02-12T03:19:58.110Z,1013.5
2019-02-12T03:21:00.783Z,1013.5
2019-02-12T03:22:04.509Z,1013.5
2019-02-12T03:23:06.635Z,1013.5
2019-02-12T03:24:09.027Z,1013.5
2019-02-12T03:25:11.173Z,1013.5
2019-02-12T03:26:13.996Z,1013.5
2019-02-12T03:27:16.386Z,1013.5
2019-02-12T03:28:18.798Z,1013.6
2019-02-12T03:29:21.525Z,1013.6
2019-02-12T03:30:23.932Z,1013.5
2019-02-12T03:31:26.727Z,1013.5
2019-02-12T03:32:29.684Z,1013.6
2019-02-12T03:33:32.789Z,1013.6
2019-02-12T03:34:34.930Z,1013.5
2019-02-12T03:35:37.057Z,1013.6
2019-02-12T03:36:39.192Z,1013.6
2019-02-12T03:37:41.605Z,1013.6
2019-02-12T03:38:43.723Z,1013.6
2019-02-12T03:39:46.126Z,1013.5
2019-02-12T03:40:48.522Z,1013.5
2019-02-12T03:41:51.644Z,1013.6
2019-02-12T03:42:53.753Z,1013.5
2019-02-12T03:43:55.887Z,1013.5
2019-02-12T03:44:58.294Z,1013.6
2019-02-12T03:46:00.421Z,1013.6
2019-02-12T03:47:02.940Z,1013.7
2019-02-12T03:48:05.064Z,1013.7
2019-02-12T03:49:07.747Z,1013.7
2019-02-12T03:50:10.170Z,1013.6
2019-02-12T03:51:12.273Z,1013.6
2019-02-12T03:52:14.770Z,1013.6
2019-02-12T03:53:17.286Z,1013.7
2019-02-12T03:54:19.392Z,1013.7
2019-02-12T03:55:21.524Z,1013.7
2019-02-12T03:56:24.212Z,1013.7
2019-02-12T03:57:26.339Z,1013.6
2019-02-12T03:58:28.443Z,1013.7
2019-02-12T03:59:30.566Z,1013.7
2019-02-12T04:00:32.674Z,1013.7
2019-02-12T04:01:35.147Z,1013.7
2019-02-12T04:02:37.698Z,1013.8
2019-02-12T04:03:39.833Z,1013.8
2019-02-12T04:04:41.934Z,1013.7
2019-02-12T04:05:44.475Z,1013.8
2019-02-12T04:06:46.606Z,1013.9
2019-02-12T04:07:48.733Z,1013.8
2019-02-12T04:08:51.535Z,1013.8
2019-02-12T04:09:53.635Z,1013.8
2019-02-12T04:10:56.138Z,1013.7
2019-02-12T04:11:58.260Z,1013.8
2019-02-12T04:13:00.786Z,1013.9
2019-02-12T04:14:02.890Z,1013.9
2019-02-12T04:15:05.014Z,1013.9
2019-02-12T04:16:07.237Z,1013.9
2019-02-12T04:17:09.365Z,1013.9
2019-02-12T04:18:11.489Z,1013.9
2019-02-12T04:19:13.631Z,1013.9
2019-02-12T04:20:16.070Z,1013.9
2019-02-12T04:21:18.240Z,1013.9
2019-02-12T04:22:23.362Z,1014
2019-02-12T04:23:25.855Z,1014
2019-02-12T04:24:27.970Z,1014
2019-02-12T04:25:30.082Z,1014
2019-02-12T04:26:32.495Z,1013.9
2019-02-12T04:27:34.643Z,1014
2019-02-12T04:28:36.786Z,1014
2019-02-12T04:29:38.932Z,1013.9
2019-02-12T04:30:41.363Z,1014
2019-02-12T04:31:43.471Z,1014
2019-02-12T04:32:45.606Z,1014
2019-02-12T04:33:47.716Z,1014
2019-02-12T04:34:50.228Z,1014
2019-02-12T04:35:52.354Z,1013.9
2019-02-12T04:36:54.833Z,1013.9
2019-02-12T04:37:57.514Z,1014
2019-02-12T04:39:00.044Z,1014
2019-02-12T04:40:02.169Z,1014
2019-02-12T04:41:04.988Z,1014
2019-02-12T04:42:07.116Z,1014
2019-02-12T04:43:09.223Z,1014
2019-02-12T04:44:11.619Z,1014
2019-02-12T04:45:14.130Z,1014.1
2019-02-12T04:46:16.964Z,1014.1
2019-02-12T04:47:19.063Z,1014
2019-02-12T04:48:21.506Z,1014
2019-02-12T04:49:23.909Z,1014
2019-02-12T04:50:26.024Z,1014.1
2019-02-12T04:51:28.439Z,1014.1
2019-02-12T04:52:32.494Z,1014.1
2019-02-12T04:53:34.647Z,1014.2
2019-02-12T04:54:36.761Z,1014.2
2019-02-12T04:55:38.890Z,1014.2
2019-02-12T04:56:41.001Z,1014.3
2019-02-12T04:57:43.125Z,1014.2
2019-02-12T04:58:45.253Z,1014.3
2019-02-12T04:59:47.741Z,1014.3
2019-02-12T05:00:49.876Z,1014.3
2019-02-12T05:01:52.008Z,1014.3
2019-02-12T05:02:54.129Z,1014.3
2019-02-12T05:03:56.262Z,1014.4
2019-02-12T05:04:59.205Z,1014.3
2019-02-12T05:06:01.455Z,1014.3
2019-02-12T05:07:03.876Z,1014.4
2019-02-12T05:08:06.426Z,1014.3
2019-02-12T05:09:08.532Z,1014.3
2019-02-12T05:10:11.233Z,1014.3
2019-02-12T05:11:13.747Z,1014.4
2019-02-12T05:12:15.889Z,1014.4
2019-02-12T05:13:18.020Z,1014.5
2019-02-12T05:14:20.141Z,1014.5
2019-02-12T05:15:22.614Z,1014.5
2019-02-12T05:16:25.327Z,1014.5
2019-02-12T05:17:27.446Z,1014.5
2019-02-12T05:18:29.615Z,1014.5
2019-02-12T05:19:31.715Z,1014.5
2019-02-12T05:20:34.170Z,1014.5
2019-02-12T05:21:36.664Z,1014.4
2019-02-12T05:22:44.061Z,1014.4
2019-02-12T05:23:46.843Z,1014.4
2019-02-12T05:24:49.623Z,1014.4
2019-02-12T05:25:52.139Z,1014.4
2019-02-12T05:26:54.263Z,1014.4
2019-02-12T05:27:56.387Z,1014.4
2019-02-12T05:28:58.970Z,1014.5
2019-02-12T05:30:01.436Z,1014.5
2019-02-12T05:31:03.919Z,1014.4
2019-02-12T05:32:06.044Z,1014.5
2019-02-12T05:33:08.187Z,1014.5
2019-02-12T05:34:10.581Z,1014.5
2019-02-12T05:35:12.707Z,1014.5
2019-02-12T05:36:15.119Z,1014.6
2019-02-12T05:37:17.240Z,1014.6
2019-02-12T05:38:19.369Z,1014.5
2019-02-12T05:39:21.493Z,1014.6
2019-02-12T05:40:24.660Z,1014.5
2019-02-12T05:41:27.081Z,1014.6
2019-02-12T05:42:29.476Z,1014.6
2019-02-12T05:43:31.645Z,1014.5
2019-02-12T05:44:34.128Z,1014.5
2019-02-12T05:45:36.542Z,1014.5
2019-02-12T05:46:39.348Z,1014.6
2019-02-12T05:47:41.792Z,1014.6
2019-02-12T05:48:44.314Z,1014.6
2019-02-12T05:49:46.863Z,1014.6
2019-02-12T05:50:49.313Z,1014.6
2019-02-12T05:51:51.835Z,1014.6
2019-02-12T05:52:55.396Z,1014.6
2019-02-12T05:53:57.933Z,1014.7
2019-02-12T05:55:00.393Z,1014.7
2019-02-12T05:56:02.616Z,1014.8
2019-02-12T05:57:04.819Z,1014.8
2019-02-12T05:58:07.527Z,1014.8
2019-02-12T05:59:09.669Z,1014.8
2019-02-12T06:00:11.813Z,1014.8
2019-02-12T06:01:13.971Z,1014.7
2019-02-12T06:02:16.653Z,1014.7
2019-02-12T06:03:19.088Z,1014.7
2019-02-12T06:04:21.199Z,1014.7
2019-02-12T06:05:23.705Z,1014.8
2019-02-12T06:06:26.436Z,1014.8
2019-02-12T06:07:28.634Z,1014.8
2019-02-12T06:08:31.337Z,1014.8
2019-02-12T06:09:33.888Z,1014.8
2019-02-12T06:10:36.309Z,1014.8
2019-02-12T06:11:38.425Z,1014.8
2019-02-12T06:12:40.575Z,1014.8
2019-02-12T06:13:42.723Z,1014.8
2019-02-12T06:14:44.857Z,1014.8
2019-02-12T06:15:47.278Z,1014.8
2019-02-12T06:16:49.914Z,1014.8
2019-02-12T06:17:52.363Z,1014.8
2019-02-12T06:18:54.463Z,1014.8
2019-02-12T06:19:56.599Z,1014.8
2019-02-12T06:20:59.000Z,1014.9
2019-02-12T06:22:01.117Z,1014.8
2019-02-12T06:23:04.810Z,1014.8
2019-02-12T06:24:07.481Z,1014.9
2019-02-12T06:25:10.017Z,1014.9
2019-02-12T06:26:12.952Z,1014.8
2019-02-12T06:27:16.077Z,1014.9
2019-02-12T06:28:18.186Z,1014.8
2019-02-12T06:29:20.297Z,1014.9
2019-02-12T06:30:22.708Z,1014.9
2019-02-12T06:31:25.128Z,1014.9
2019-02-12T06:32:27.944Z,1014.9
2019-02-12T06:33:30.689Z,1014.9
2019-02-12T06:34:33.090Z,1015
2019-02-12T06:35:35.199Z,1014.9
2019-02-12T06:36:37.326Z,1015
2019-02-12T06:37:39.830Z,1015
2019-02-12T06:38:41.947Z,1015
2019-02-12T06:39:44.088Z,1015
2019-02-12T06:40:46.603Z,1015
2019-02-12T06:41:49.422Z,1015.1
2019-02-12T06:42:52.129Z,1015
2019-02-12T06:43:54.273Z,1015
2019-02-12T06:44:57.081Z,1015
2019-02-12T06:45:59.615Z,1015
2019-02-12T06:47:02.126Z,1015
2019-02-12T06:48:04.543Z,1015.1
2019-02-12T06:49:07.532Z,1015
2019-02-12T06:50:09.654Z,1015.1
2019-02-12T06:51:12.060Z,1015.1
2019-02-12T06:52:14.163Z,1015.1
2019-02-12T06:53:16.281Z,1015.1
2019-02-12T06:54:18.790Z,1015.2
2019-02-12T06:55:20.904Z,1015.2
2019-02-12T06:56:23.712Z,1015.2
2019-02-12T06:57:25.828Z,1015.2
2019-02-12T06:58:27.938Z,1015.2
2019-02-12T06:59:30.039Z,1015.2
2019-02-12T07:00:32.173Z,1015.3
2019-02-12T07:01:34.304Z,1015.3
2019-02-12T07:02:36.420Z,1015.3
2019-02-12T07:03:38.834Z,1015.3
2019-02-12T07:04:40.929Z,1015.3
2019-02-12T07:05:43.052Z,1015.4
2019-02-12T07:06:45.584Z,1015.4
2019-02-12T07:07:48.086Z,1015.4
2019-02-12T07:08:50.900Z,1015.4
2019-02-12T07:09:53.026Z,1015.4
2019-02-12T07:10:55.594Z,1015.4
2019-02-12T07:11:57.722Z,1015.4
2019-02-12T07:13:00.162Z,1015.5
2019-02-12T07:14:05.656Z,1015.5
2019-02-12T07:15:08.098Z,1015.5
2019-02-12T07:16:10.511Z,1015.5
2019-02-12T07:17:12.631Z,1015.5
2019-02-12T07:18:14.739Z,1015.5
2019-02-12T07:19:16.862Z,1015.5
2019-02-12T07:20:18.959Z,1015.5
2019-02-12T07:21:21.458Z,1015.6
2019-02-12T07:22:23.585Z,1015.6
2019-02-12T07:23:27.077Z,1015.6
2019-02-12T07:24:29.825Z,1015.6
2019-02-12T07:25:31.952Z,1015.6
2019-02-12T07:26:34.358Z,1015.6
2019-02-12T07:27:37.146Z,1015.6
2019-02-12T07:28:39.317Z,1015.6
2019-02-12T07:29:41.418Z,1015.6
2019-02-12T07:30:44.507Z,1015.6
2019-02-12T07:31:46.612Z,1015.7
2019-02-12T07:32:48.738Z,1015.7
2019-02-12T07:33:50.848Z,1015.7
2019-02-12T07:34:53.766Z,1015.7
2019-02-12T07:35:56.175Z,1015.8
2019-02-12T07:36:58.286Z,1015.8
2019-02-12T07:38:00.856Z,1015.8
2019-02-12T07:39:02.954Z,1015.8
2019-02-12T07:40:05.072Z,1015.9
2019-02-12T07:41:07.480Z,1015.9
2019-02-12T07:42:10.239Z,1015.9
2019-02-12T07:43:13.427Z,1015.9
2019-02-12T07:44:15.548Z,1015.9
2019-02-12T07:45:17.968Z,1015.9
2019-02-12T07:46:20.132Z,1015.9
2019-02-12T07:47:22.559Z,1015.8
2019-02-12T07:48:25.253Z,1015.9
2019-02-12T07:49:28.334Z,1015.9
2019-02-12T07:50:30.748Z,1015.9
2019-02-12T07:51:33.201Z,1016
2019-02-12T07:52:35.319Z,1016
2019-02-12T07:53:37.739Z,1016
2019-02-12T07:54:40.530Z,1016
2019-02-12T07:55:42.633Z,1016.1
2019-02-12T07:56:45.501Z,1016.1
2019-02-12T07:57:47.930Z,1016.1
2019-02-12T07:58:50.030Z,1016.2
2019-02-12T07:59:52.451Z,1016.2
2019-02-12T08:00:55.656Z,1016.2
2019-02-12T08:01:58.160Z,1016.2
2019-02-12T08:03:00.859Z,1016.2
2019-02-12T08:04:02.980Z,1016.3
2019-02-12T08:05:05.111Z,1016.3
2019-02-12T08:06:07.907Z,1016.3
2019-02-12T08:07:10.419Z,1016.4
2019-02-12T08:08:12.561Z,1016.4
2019-02-12T08:09:15.254Z,1016.4
2019-02-12T08:10:18.066Z,1016.5
2019-02-12T08:11:20.598Z,1016.5
2019-02-12T08:12:22.722Z,1016.5
2019-02-12T08:13:25.443Z,1016.6
2019-02-12T08:14:27.846Z,1016.6
2019-02-12T08:15:29.981Z,1016.6
2019-02-12T08:16:33.084Z,1016.6
2019-02-12T08:17:35.214Z,1016.7
2019-02-12T08:18:37.741Z,1016.7
2019-02-12T08:19:40.257Z,1016.7
2019-02-12T08:20:43.665Z,1016.8
2019-02-12T08:21:46.753Z,1016.8
2019-02-12T08:22:49.724Z,1016.8
2019-02-12T08:23:51.851Z,1016.8
2019-02-12T08:24:53.994Z,1016.8
2019-02-12T08:25:56.108Z,1016.9
2019-02-12T08:26:58.258Z,1016.9
2019-02-12T08:28:00.982Z,1016.9
2019-02-12T08:29:03.505Z,1016.9
2019-02-12T08:30:06.708Z,1017
2019-02-12T08:31:08.862Z,1017
2019-02-12T08:32:10.977Z,1017
2019-02-12T08:33:13.780Z,1017
2019-02-12T08:34:15.918Z,1017
2019-02-12T08:35:18.626Z,1017
2019-02-12T08:36:21.364Z,1017
2019-02-12T08:37:23.875Z,1017
2019-02-12T08:38:26.426Z,1017.1
2019-02-12T08:39:29.126Z,1017
2019-02-12T08:40:31.265Z,1017.1
2019-02-12T08:41:33.384Z,1017
2019-02-12T08:42:35.804Z,1017
2019-02-12T08:43:38.677Z,1017.1
2019-02-12T08:44:45.073Z,1017.1
2019-02-12T08:45:48.451Z,1017.1
2019-02-12T08:46:50.577Z,1017.1
2019-02-12T08:47:55.161Z,1017.1
2019-02-12T08:48:57.607Z,1017.2
2019-02-12T08:50:00.798Z,1017.2
2019-02-12T08:51:03.839Z,1017.2
2019-02-12T08:52:06.391Z,1017.1
2019-02-12T08:53:08.881Z,1017.2
2019-02-12T08:54:11.025Z,1017.2
2019-02-12T08:55:13.163Z,1017.2
2019-02-12T08:56:15.285Z,1017.2
2019-02-12T08:57:17.725Z,1017.3
2019-02-12T08:58:19.873Z,1017.4
2019-02-12T08:59:22.665Z,1017.4
2019-02-12T09:00:25.103Z,1017.4
2019-02-12T09:01:28.222Z,1017.3
2019-02-12T09:02:30.385Z,1017.3
2019-02-12T09:03:32.539Z,1017.4
2019-02-12T09:04:35.088Z,1017.4
2019-02-12T09:05:37.602Z,1017.4
2019-02-12T09:06:40.022Z,1017.6
2019-02-12T09:07:42.499Z,1017.5
2019-02-12T09:08:44.623Z,1017.5
2019-02-12T09:09:46.762Z,1017.6
2019-02-12T09:10:49.578Z,1017.6
2019-02-12T09:11:51.699Z,1017.6
2019-02-12T09:12:53.817Z,1017.7
2019-02-12T09:13:56.920Z,1017.6
2019-02-12T09:14:59.889Z,1017.7
2019-02-12T09:16:03.492Z,1017.6
2019-02-12T09:17:06.213Z,1017.7
2019-02-12T09:18:08.330Z,1017.6
2019-02-12T09:19:10.469Z,1017.6
2019-02-12T09:20:12.927Z,1017.7
2019-02-12T09:21:15.644Z,1017.6
2019-02-12T09:22:17.749Z,1017.7
2019-02-12T09:23:20.173Z,1017.7
2019-02-12T09:24:22.306Z,1017.7
2019-02-12T09:25:24.730Z,1017.7
2019-02-12T09:26:26.837Z,1017.7
2019-02-12T09:27:28.973Z,1017.7
2019-02-12T09:28:31.106Z,1017.7
2019-02-12T09:29:33.542Z,1017.7
2019-02-12T09:30:37.054Z,1017.7
2019-02-12T09:31:39.479Z,1017.7
2019-02-12T09:32:42.019Z,1017.7
2019-02-12T09:33:45.168Z,1017.8
2019-02-12T09:34:47.310Z,1017.7
2019-02-12T09:35:49.743Z,1017.7
2019-02-12T09:36:52.637Z,1017.8
2019-02-12T09:37:54.774Z,1017.8
2019-02-12T09:38:56.887Z,1017.8
2019-02-12T09:39:59.015Z,1017.8
2019-02-12T09:41:01.180Z,1017.7
2019-02-12T09:42:03.592Z,1017.8
2019-02-12T09:43:05.737Z,1017.8
2019-02-12T09:44:07.869Z,1017.8
2019-02-12T09:45:10.586Z,1017.8
2019-02-12T09:46:13.012Z,1017.8
2019-02-12T09:47:15.447Z,1017.8
2019-02-12T09:48:17.894Z,1017.8
2019-02-12T09:49:20.357Z,1017.8
2019-02-12T09:50:22.493Z,1017.9
2019-02-12T09:51:25.005Z,1017.8
2019-02-12T09:52:27.151Z,1017.8
2019-02-12T09:53:29.327Z,1018
2019-02-12T09:54:31.459Z,1017.9
2019-02-12T09:55:33.569Z,1017.9
2019-02-12T09:56:36.220Z,1017.9
2019-02-12T09:57:38.621Z,1018
2019-02-12T09:58:41.078Z,1018
2019-02-12T09:59:43.224Z,1018.1
2019-02-12T10:00:45.724Z,1018
2019-02-12T10:01:48.172Z,1018
2019-02-12T10:02:50.330Z,1018
2019-02-12T10:03:52.748Z,1018
2019-02-12T10:04:55.841Z,1018
2019-02-12T10:05:57.987Z,1017.9
2019-02-12T10:07:00.713Z,1018
2019-02-12T10:08:03.746Z,1018
2019-02-12T10:09:06.282Z,1018
2019-02-12T10:10:08.976Z,1018
2019-02-12T10:11:11.102Z,1017.9
2019-02-12T10:12:13.248Z,1018.1
2019-02-12T10:13:15.383Z,1018.1
2019-02-12T10:14:17.501Z,1018.1
2019-02-12T10:15:19.651Z,1018.1
2019-02-12T10:16:22.362Z,1018.2
2019-02-12T10:17:25.178Z,1018.1
2019-02-12T10:18:27.613Z,1018.2
2019-02-12T10:19:29.752Z,1018.1
2019-02-12T10:20:31.871Z,1018.1
2019-02-12T10:21:34.159Z,1018.1
2019-02-12T10:22:36.290Z,1018.2
2019-02-12T10:23:38.418Z,1018.2
2019-02-12T10:24:40.955Z,1018.2
2019-02-12T10:25:43.786Z,1018.2
2019-02-12T10:26:46.235Z,1018.2
2019-02-12T10:27:48.363Z,1018.3
2019-02-12T10:28:50.900Z,1018.2
2019-02-12T10:29:53.040Z,1018.2
2019-02-12T10:30:55.189Z,1018.3
2019-02-12T10:31:57.901Z,1018.2
2019-02-12T10:33:09.445Z,1018.2
2019-02-12T10:34:11.676Z,1018.3
2019-02-12T10:35:14.410Z,1018.3
2019-02-12T10:36:16.831Z,1018.3
2019-02-12T10:37:19.345Z,1018.3
2019-02-12T10:38:21.482Z,1018.4
2019-02-12T10:39:23.621Z,1018.4
2019-02-12T10:40:27.410Z,1018.3
2019-02-12T10:41:30.128Z,1018.4
2019-02-12T10:42:32.895Z,1018.3
2019-02-12T10:43:35.331Z,1018.4
2019-02-12T10:44:37.744Z,1018.4
2019-02-12T10:45:39.901Z,1018.5
2019-02-12T10:46:42.022Z,1018.5
2019-02-12T10:47:44.432Z,1018.3
2019-02-12T10:48:46.573Z,1018.3
2019-02-12T10:49:48.730Z,1018.3
2019-02-12T10:50:51.874Z,1018.4
2019-02-12T10:51:54.007Z,1018.4
2019-02-12T10:52:56.173Z,1018.3
2019-02-12T10:53:58.890Z,1018.4
2019-02-12T10:55:01.021Z,1018.4
2019-02-12T10:56:04.938Z,1018.4
2019-02-12T10:57:07.361Z,1018.4
2019-02-12T10:58:09.514Z,1018.4
2019-02-12T10:59:11.994Z,1018.4
2019-02-12T11:00:16.440Z,1018.5
2019-02-12T11:01:18.572Z,1018.5
2019-02-12T11:02:20.709Z,1018.6
2019-02-12T11:03:22.828Z,1018.6
2019-02-12T11:04:24.963Z,1018.6
2019-02-12T11:05:27.121Z,1018.6
2019-02-12T11:06:29.238Z,1018.6
2019-02-12T11:07:31.774Z,1018.6
2019-02-12T11:08:33.905Z,1018.6
2019-02-12T11:09:36.027Z,1018.5
2019-02-12T11:10:38.152Z,1018.6
2019-02-12T11:11:40.283Z,1018.7
2019-02-12T11:12:42.799Z,1018.6
2019-02-12T11:13:44.961Z,1018.7
2019-02-12T11:14:47.093Z,1018.6
2019-02-12T11:15:49.215Z,1018.5
2019-02-12T11:16:51.350Z,1018.7
2019-02-12T11:17:53.481Z,1018.6
2019-02-12T11:18:55.593Z,1018.7
2019-02-12T11:19:58.112Z,1018.7
2019-02-12T11:21:00.534Z,1018.7
2019-02-12T11:22:02.653Z,1018.7
2019-02-12T11:23:04.795Z,1018.8
2019-02-12T11:24:06.918Z,1018.7
2019-02-12T11:25:09.049Z,1018.7
2019-02-12T11:26:11.179Z,1018.7
2019-02-12T11:27:13.330Z,1018.7
2019-02-12T11:28:15.456Z,1018.7
2019-02-12T11:29:17.588Z,1018.7
2019-02-12T11:30:19.735Z,1018.7
2019-02-12T11:31:22.133Z,1018.7
2019-02-12T11:32:24.274Z,1018.7
2019-02-12T11:33:26.684Z,1018.7
2019-02-12T11:34:28.818Z,1018.7
2019-02-12T11:35:31.248Z,1018.7
2019-02-12T11:36:33.391Z,1018.7
2019-02-12T11:37:35.525Z,1018.7
2019-02-12T11:38:37.645Z,1018.7
2019-02-12T11:39:39.788Z,1018.8
2019-02-12T11:40:41.901Z,1018.8
2019-02-12T11:41:44.041Z,1018.8
2019-02-12T11:42:46.177Z,1018.8
2019-02-12T11:43:48.350Z,1018.8
2019-02-12T11:44:50.746Z,1018.8
2019-02-12T11:45:52.887Z,1018.8
2019-02-12T11:46:55.005Z,1018.9
2019-02-12T11:47:57.143Z,1018.8
2019-02-12T11:48:59.987Z,1018.8
2019-02-12T11:50:02.126Z,1018.9
2019-02-12T11:51:04.263Z,1018.8
2019-02-12T11:52:06.410Z,1018.8
2019-02-12T11:53:08.848Z,1018.8
2019-02-12T11:54:10.990Z,1018.8
2019-02-12T11:55:13.113Z,1018.9
2019-02-12T11:56:15.265Z,1018.9
2019-02-12T11:57:17.388Z,1018.9
2019-02-12T11:58:19.850Z,1018.9
2019-02-12T11:59:21.974Z,1019
2019-02-12T12:00:24.120Z,1018.9
2019-02-12T12:01:26.242Z,1019
2019-02-12T12:02:28.370Z,1019
2019-02-12T12:03:30.515Z,1019
2019-02-12T12:04:33.299Z,1019
2019-02-12T12:05:35.831Z,1018.9
2019-02-12T12:06:37.963Z,1018.9
2019-02-12T12:07:40.101Z,1019
2019-02-12T12:08:42.221Z,1019
2019-02-12T12:09:44.362Z,1019
2019-02-12T12:10:46.490Z,1019
2019-02-12T12:11:48.615Z,1019
2019-02-12T12:12:50.771Z,1019
2019-02-12T12:13:52.906Z,1019
2019-02-12T12:14:55.076Z,1019
2019-02-12T12:15:57.503Z,1019
2019-02-12T12:16:59.635Z,1019
2019-02-12T12:18:01.764Z,1019
2019-02-12T12:19:04.307Z,1019.1
2019-02-12T12:20:06.422Z,1019
2019-02-12T12:21:08.551Z,1019.1
2019-02-12T12:22:10.694Z,1019.1
2019-02-12T12:23:12.826Z,1019.1
2019-02-12T12:24:14.945Z,1019.1
2019-02-12T12:25:17.091Z,1019.1
2019-02-12T12:26:19.219Z,1019.1
2019-02-12T12:27:21.344Z,1019.2
2019-02-12T12:28:23.483Z,1019.2
2019-02-12T12:29:25.597Z,1019.2
2019-02-12T12:30:27.731Z,1019.2
2019-02-12T12:31:30.135Z,1019.2
2019-02-12T12:32:32.273Z,1019.2
2019-02-12T12:33:34.385Z,1019.2
2019-02-12T12:34:36.524Z,1019.1
2019-02-12T12:35:38.652Z,1019.1
2019-02-12T12:36:40.787Z,1019.2
2019-02-12T12:37:42.940Z,1019.2
2019-02-12T12:38:45.333Z,1019.3
2019-02-12T12:39:47.458Z,1019.2
2019-02-12T12:40:49.583Z,1019.2
2019-02-12T12:41:52.161Z,1019.3
2019-02-12T12:42:54.283Z,1019.3
2019-02-12T12:43:56.460Z,1019.3
2019-02-12T12:44:58.616Z,1019.3
2019-02-12T12:46:01.283Z,1019.2
2019-02-12T12:47:03.719Z,1019.2
2019-02-12T12:48:06.169Z,1019.3
2019-02-12T12:49:08.306Z,1019.3
2019-02-12T12:50:10.442Z,1019.2
2019-02-12T12:51:12.600Z,1019.3
2019-02-12T12:52:15.139Z,1019.3
2019-02-12T12:53:17.330Z,1019.3
2019-02-12T12:54:19.744Z,1019.3
2019-02-12T12:55:22.190Z,1019.4
2019-02-12T12:56:24.333Z,1019.4
2019-02-12T12:57:26.501Z,1019.3
2019-02-12T12:58:28.657Z,1019.4
2019-02-12T12:59:30.834Z,1019.3
2019-02-12T13:00:32.979Z,1019.4
2019-02-12T13:01:35.810Z,1019.3
2019-02-12T13:02:38.383Z,1019.4
2019-02-12T13:03:40.525Z,1019.3
2019-02-12T13:04:42.958Z,1019.4
2019-02-12T13:05:45.073Z,1019.3